Time;durP1;ratioP1;P1;durP2;ratioP2;P2;SDS_P1;SDS_P2;PMS_P1;PMS_P2;Temp;Humidity;BMP_temperature;BMP_pressure;BME280_temperature;BME280_humidity;BME280_pressure;Samples;Min_cycle;Max_cycle;Signal;HPM_P1;HPM_P2
2021/10/29 00:02:22;;;;;;;10.40;6.83;;;24.40;99.90;;;;;;1896740;74;21652;-79
2021/10/29 00:04:57;;;;;;;9.83;5.65;;;24.40;99.90;;;;;;1905593;74;21068;-79
2021/10/29 00:07:29;;;;;;;8.70;5.10;;;24.50;99.90;;;;;;1908422;74;21141;-80
2021/10/29 00:10:00;;;;;;;8.48;5.08;;;24.40;99.90;;;;;;1904957;74;21628;-80
2021/10/29 00:12:32;;;;;;;10.05;5.92;;;24.50;99.90;;;;;;1906903;74;21542;-79
2021/10/29 00:15:05;;;;;;;12.10;6.17;;;24.60;99.90;;;;;;1874895;74;21060;-79
2021/10/29 00:17:37;;;;;;;9.73;5.92;;;24.60;99.90;;;;;;1912207;73;21517;-80
2021/10/29 00:20:09;;;;;;;8.18;4.58;;;24.60;99.90;;;;;;1896230;74;21162;-79
2021/10/29 00:22:41;;;;;;;6.70;4.08;;;24.60;99.90;;;;;;1899346;73;21157;-79
2021/10/29 00:25:13;;;;;;;8.13;5.47;;;24.60;99.90;;;;;;1913341;74;21167;-79
2021/10/29 00:27:44;;;;;;;7.85;4.30;;;24.70;99.90;;;;;;1875743;76;21155;-79
2021/10/29 00:30:15;;;;;;;5.10;3.72;;;24.80;99.90;;;;;;1922826;73;21127;-79
2021/10/29 00:32:46;;;;;;;6.05;3.45;;;24.80;99.90;;;;;;1906876;74;21111;-79
2021/10/29 00:35:17;;;;;;;7.03;3.47;;;24.80;99.90;;;;;;1901975;73;21138;-79
2021/10/29 00:37:48;;;;;;;6.40;3.70;;;24.90;99.90;;;;;;1840401;76;21137;-79
2021/10/29 00:40:22;;;;;;;6.15;4.22;;;24.90;99.90;;;;;;1867816;76;21255;-79
2021/10/29 00:42:56;;;;;;;8.80;4.17;;;25.00;99.90;;;;;;1918963;73;21217;-79
2021/10/29 00:45:27;;;;;;;9.70;3.42;;;25.00;99.90;;;;;;1912045;73;21162;-79
2021/10/29 00:47:58;;;;;;;8.80;3.05;;;25.00;99.90;;;;;;1914560;74;21575;-80
2021/10/29 00:50:32;;;;;;;5.97;2.77;;;25.10;99.90;;;;;;1912073;74;21170;-80
2021/10/29 00:53:03;;;;;;;5.87;2.72;;;25.20;99.90;;;;;;1909979;74;21624;-80
2021/10/29 00:55:34;;;;;;;6.12;3.72;;;25.20;99.90;;;;;;1908879;74;21136;-79
2021/10/29 00:58:05;;;;;;;6.67;3.08;;;25.20;99.90;;;;;;1838997;77;21105;-80
2021/10/29 01:00:36;;;;;;;4.47;2.27;;;25.20;99.90;;;;;;1919223;73;21128;-74
2021/10/29 01:03:07;;;;;;;4.08;2.47;;;25.30;99.90;;;;;;1857784;76;21137;-73
2021/10/29 01:05:39;;;;;;;4.60;2.87;;;25.30;99.90;;;;;;1908447;74;21583;-73
2021/10/29 01:08:12;;;;;;;6.83;2.55;;;25.40;99.90;;;;;;1918955;74;21982;-73
2021/10/29 01:10:43;;;;;;;5.87;2.50;;;25.40;99.90;;;;;;1917457;74;21116;-73
2021/10/29 01:13:14;;;;;;;3.95;2.55;;;25.50;99.90;;;;;;1861112;76;21207;-74
2021/10/29 01:15:46;;;;;;;6.00;2.60;;;25.50;99.90;;;;;;1905940;75;21190;-74
2021/10/29 01:18:17;;;;;;;4.97;2.30;;;25.60;99.90;;;;;;1910129;74;21157;-74
2021/10/29 01:20:48;;;;;;;5.42;2.45;;;25.60;99.90;;;;;;1921753;73;21143;-74
2021/10/29 01:23:18;;;;;;;5.05;2.42;;;25.60;99.90;;;;;;1919805;73;21139;-73
2021/10/29 01:25:49;;;;;;;3.65;2.00;;;25.70;99.90;;;;;;1912392;73;21131;-73
2021/10/29 01:28:20;;;;;;;4.10;2.50;;;25.70;99.90;;;;;;1912641;74;21650;-73
2021/10/29 01:30:51;;;;;;;7.30;2.40;;;25.70;99.90;;;;;;1911955;74;21606;-73
2021/10/29 01:33:22;;;;;;;7.28;2.45;;;25.70;99.90;;;;;;1911712;74;21152;-74
2021/10/29 01:35:53;;;;;;;5.42;3.35;;;25.80;99.90;;;;;;1909468;74;21155;-74
2021/10/29 01:38:25;;;;;;;4.58;2.72;;;25.80;99.90;;;;;;1911691;73;21241;-73
2021/10/29 01:40:56;;;;;;;4.87;2.67;;;25.80;99.90;;;;;;1912254;73;21115;-73
2021/10/29 01:43:28;;;;;;;6.40;2.55;;;25.90;99.90;;;;;;1910018;74;21586;-73
2021/10/29 01:45:59;;;;;;;4.62;2.85;;;25.90;99.90;;;;;;1907389;73;21155;-72
2021/10/29 01:48:30;;;;;;;5.33;2.40;;;26.00;99.90;;;;;;1905652;74;21602;-73
2021/10/29 01:51:01;;;;;;;4.08;2.47;;;26.00;99.90;;;;;;1913929;74;21131;-73
2021/10/29 01:53:32;;;;;;;3.37;2.25;;;26.10;99.90;;;;;;1910693;73;21213;-73
2021/10/29 01:56:03;;;;;;;5.00;2.50;;;26.20;99.90;;;;;;1859475;76;21065;-73
2021/10/29 01:58:34;;;;;;;5.20;2.30;;;26.20;99.90;;;;;;1910725;73;21521;-74
2021/10/29 02:01:06;;;;;;;3.85;2.22;;;26.30;99.90;;;;;;1909765;73;21213;-73
2021/10/29 02:03:37;;;;;;;4.62;2.52;;;26.40;99.90;;;;;;1917070;73;21092;-72
2021/10/29 02:06:07;;;;;;;5.95;2.27;;;26.40;99.90;;;;;;1920364;73;21749;-73
2021/10/29 02:08:39;;;;;;;4.47;2.45;;;26.40;99.90;;;;;;1915824;73;21598;-73
2021/10/29 02:11:09;;;;;;;9.93;3.42;;;26.50;99.90;;;;;;1911533;73;21111;-73
2021/10/29 02:13:40;;;;;;;4.95;3.08;;;26.50;99.90;;;;;;1909526;73;21993;-73
2021/10/29 02:16:11;;;;;;;5.60;2.92;;;26.60;99.90;;;;;;1907849;73;21721;-74
2021/10/29 02:18:42;;;;;;;5.72;3.10;;;26.60;99.90;;;;;;1918869;73;21649;-75
2021/10/29 02:21:12;;;;;;;4.70;2.52;;;26.60;99.90;;;;;;1905462;73;21714;-76
2021/10/29 02:23:43;;;;;;;5.62;2.87;;;26.70;99.90;;;;;;1926394;73;21130;-75
2021/10/29 02:26:14;;;;;;;5.42;2.42;;;26.70;99.90;;;;;;1906783;73;21681;-75
2021/10/29 02:28:45;;;;;;;4.97;2.65;;;26.80;99.90;;;;;;1893022;74;21073;-74
2021/10/29 02:31:16;;;;;;;3.65;1.95;;;26.80;99.90;;;;;;1911182;73;21150;-74
2021/10/29 02:33:46;;;;;;;3.22;2.17;;;26.80;99.90;;;;;;1922493;73;21659;-74
2021/10/29 02:36:17;;;;;;;7.05;2.45;;;26.90;99.90;;;;;;1906733;73;21115;-74
2021/10/29 02:38:48;;;;;;;2.60;2.15;;;26.90;99.90;;;;;;1913009;73;21638;-75
2021/10/29 02:41:19;;;;;;;3.60;2.15;;;27.00;99.90;;;;;;1816352;78;21168;-74
2021/10/29 02:43:50;;;;;;;4.12;2.02;;;27.10;99.90;;;;;;1911438;74;21198;-74
2021/10/29 02:46:21;;;;;;;3.10;1.95;;;27.20;99.90;;;;;;1922651;74;21140;-75
2021/10/29 02:48:52;;;;;;;3.55;2.27;;;27.30;99.90;;;;;;1915295;74;21587;-74
2021/10/29 02:51:25;;;;;;;4.35;2.08;;;27.30;99.90;;;;;;1909314;74;21332;-76
2021/10/29 02:53:55;;;;;;;3.33;2.00;;;27.40;99.90;;;;;;1888075;75;21650;-73
2021/10/29 02:56:26;;;;;;;4.87;1.90;;;27.40;99.90;;;;;;1927721;73;21160;-75
2021/10/29 02:58:57;;;;;;;4.70;2.42;;;27.50;99.90;;;;;;1893744;74;21082;-75
2021/10/29 03:01:28;;;;;;;5.35;2.65;;;27.60;99.90;;;;;;1911013;74;21173;-74
2021/10/29 03:04:00;;;;;;;4.75;2.25;;;27.70;99.90;;;;;;1909973;74;21588;-75
2021/10/29 03:06:31;;;;;;;4.45;2.27;;;27.80;99.90;;;;;;1880888;75;22239;-75
2021/10/29 03:09:02;;;;;;;5.20;2.35;;;27.90;99.90;;;;;;1927122;73;21122;-74
2021/10/29 03:11:32;;;;;;;3.40;2.00;;;28.00;99.90;;;;;;1907253;74;21112;-75
2021/10/29 03:14:03;;;;;;;3.87;2.00;;;28.10;99.90;;;;;;1916857;74;21697;-75
2021/10/29 03:16:34;;;;;;;3.98;2.58;;;28.20;99.90;;;;;;1909535;74;21147;-74
2021/10/29 03:19:06;;;;;;;4.10;2.22;;;28.30;99.90;;;;;;1908964;74;21175;-75
2021/10/29 03:21:36;;;;;;;4.47;2.20;;;28.40;99.90;;;;;;1910208;74;22269;-75
2021/10/29 03:24:07;;;;;;;4.20;3.15;;;28.50;99.90;;;;;;1893492;74;21171;-74
2021/10/29 03:26:37;;;;;;;4.00;2.20;;;;;;;;;;1898919;74;21155;-74
2021/10/29 03:29:08;;;;;;;5.90;2.40;;;28.90;98.40;;;;;;1909605;74;21108;-75
2021/10/29 03:31:39;;;;;;;4.45;2.17;;;29.00;98.20;;;;;;1903244;74;21100;-74
2021/10/29 03:34:09;;;;;;;4.50;2.35;;;29.00;98.50;;;;;;1914177;74;21157;-74
2021/10/29 03:36:41;;;;;;;3.45;2.47;;;29.10;98.10;;;;;;1877074;75;21123;-74
2021/10/29 03:39:18;;;;;;;4.35;2.22;;;29.10;98.00;;;;;;1928656;73;21144;-74
2021/10/29 03:41:54;;;;;;;3.17;2.42;;;29.20;97.60;;;;;;1924830;74;21096;-74
2021/10/29 03:46:48;;;;;;;3.65;2.33;;;29.40;98.10;;;;;;1914656;74;21565;-75
2021/10/29 03:49:28;;;;;;;4.47;2.10;;;29.50;97.50;;;;;;1859766;76;21653;-74
2021/10/29 03:52:37;;;;;;;4.70;2.47;;;29.60;97.10;;;;;;1888959;75;21150;-73
2021/10/29 03:54:29;;;;;;;4.50;2.72;;;29.70;97.00;;;;;;1898181;74;21242;-73
2021/10/29 03:59:30;;;;;;;4.28;2.50;;;29.90;96.20;;;;;;1886236;74;21150;-74
2021/10/29 04:02:02;;;;;;;4.50;2.33;;;30.00;96.60;;;;;;1910590;74;21597;-74
2021/10/29 04:04:33;;;;;;;5.17;2.83;;;30.10;96.60;;;;;;1899642;74;21717;-72
2021/10/29 04:07:04;;;;;;;5.50;3.60;;;30.20;95.60;;;;;;1914994;74;21203;-75
2021/10/29 04:09:35;;;;;;;3.70;2.83;;;30.30;95.80;;;;;;1903051;74;21674;-74
2021/10/29 04:12:06;;;;;;;3.62;2.67;;;30.40;95.10;;;;;;1904591;74;21133;-75
2021/10/29 04:14:38;;;;;;;4.28;2.87;;;30.40;94.30;;;;;;1916773;74;21147;-74
2021/10/29 04:17:16;;;;;;;4.42;3.35;;;30.50;95.90;;;;;;1921135;74;21118;-73
2021/10/29 04:19:47;;;;;;;3.35;2.80;;;30.60;94.40;;;;;;1909622;74;21708;-72
2021/10/29 04:22:17;;;;;;;5.92;3.33;;;30.70;94.70;;;;;;1858673;77;21116;-72
2021/10/29 04:24:48;;;;;;;5.55;3.58;;;30.80;93.60;;;;;;1840950;77;21246;-72
2021/10/29 04:27:21;;;;;;;4.70;3.40;;;30.90;93.80;;;;;;1908350;74;21099;-73
2021/10/29 04:29:53;;;;;;;5.12;3.50;;;31.00;93.90;;;;;;1895713;75;21948;-72
2021/10/29 04:32:24;;;;;;;5.80;2.98;;;30.90;93.50;;;;;;1910550;75;21616;-72
2021/10/29 04:34:55;;;;;;;4.83;3.20;;;30.90;94.00;;;;;;1907979;74;21585;-72
2021/10/29 04:37:26;;;;;;;5.75;3.65;;;30.70;93.80;;;;;;1857172;77;21133;-73
2021/10/29 04:39:56;;;;;;;7.55;5.30;;;30.60;94.30;;;;;;1901276;75;21176;-73
2021/10/29 04:42:27;;;;;;;6.22;3.95;;;30.70;93.10;;;;;;1857524;77;21172;-73
2021/10/29 04:44:58;;;;;;;6.05;5.05;;;30.80;93.10;;;;;;1902182;75;21134;-73
2021/10/29 04:47:29;;;;;;;6.28;4.60;;;30.90;92.40;;;;;;1900216;74;21145;-73
2021/10/29 04:49:59;;;;;;;6.87;4.90;;;30.90;92.00;;;;;;1931460;73;21188;-73
2021/10/29 04:52:30;;;;;;;6.15;4.45;;;31.00;92.60;;;;;;1904411;74;21621;-73
2021/10/29 04:55:01;;;;;;;7.00;4.42;;;30.90;92.00;;;;;;1923032;73;21068;-73
2021/10/29 04:57:33;;;;;;;5.58;4.20;;;30.80;93.30;;;;;;1925760;73;21175;-73
2021/10/29 05:00:05;;;;;;;6.72;4.62;;;30.80;93.00;;;;;;1920337;73;21075;-73
2021/10/29 05:02:37;;;;;;;5.90;4.95;;;30.80;92.80;;;;;;1924102;73;21595;-72
2021/10/29 05:05:09;;;;;;;6.62;5.35;;;30.90;91.90;;;;;;1930055;73;21064;-72
2021/10/29 05:07:40;;;;;;;6.22;5.37;;;31.00;91.80;;;;;;1920157;73;21110;-72
2021/10/29 05:10:11;;;;;;;7.35;5.08;;;31.00;92.00;;;;;;1922001;73;21138;-72
2021/10/29 05:12:43;;;;;;;6.70;5.33;;;31.00;91.70;;;;;;1928252;74;21220;-73
2021/10/29 05:15:14;;;;;;;6.75;5.12;;;31.10;91.20;;;;;;1906877;73;21127;-72
2021/10/29 05:17:45;;;;;;;6.97;5.85;;;31.20;91.40;;;;;;1929356;73;21107;-72
2021/10/29 05:20:18;;;;;;;10.85;5.80;;;31.30;91.30;;;;;;1921848;74;21139;-72
2021/10/29 05:22:49;;;;;;;8.33;5.85;;;31.30;89.80;;;;;;1917654;74;21072;-73
2021/10/29 05:25:20;;;;;;;6.25;5.00;;;31.50;91.90;;;;;;1915546;74;21544;-74
2021/10/29 05:27:51;;;;;;;6.92;5.45;;;31.50;91.80;;;;;;1913198;73;21146;-73
2021/10/29 05:30:22;;;;;;;6.60;5.90;;;31.50;90.40;;;;;;1913290;73;21099;-72
2021/10/29 05:32:52;;;;;;;9.28;5.00;;;31.50;90.40;;;;;;1927445;73;21071;-74
2021/10/29 05:35:23;;;;;;;6.42;5.17;;;31.60;90.00;;;;;;1918156;74;21154;-72
2021/10/29 05:37:54;;;;;;;7.65;6.20;;;31.60;90.90;;;;;;1922359;73;21110;-74
2021/10/29 05:40:25;;;;;;;8.45;5.53;;;31.60;90.50;;;;;;1949826;73;21463;-73
2021/10/29 05:42:55;;;;;;;6.10;5.50;;;31.70;90.90;;;;;;1896642;74;21185;-73
2021/10/29 05:45:26;;;;;;;6.58;5.67;;;31.80;89.20;;;;;;1949031;73;21645;-74
2021/10/29 05:48:02;;;;;;;7.53;5.87;;;;;;;;;;1910726;74;21127;-73
2021/10/29 05:50:29;;;;;;;8.03;5.60;;;31.80;90.30;;;;;;1893886;74;21109;-72
2021/10/29 05:53:03;;;;;;;6.10;5.15;;;31.80;90.50;;;;;;1920257;74;21203;-73
2021/10/29 05:55:32;;;;;;;6.37;4.92;;;31.70;88.20;;;;;;1908653;74;21239;-73
2021/10/29 05:58:03;;;;;;;6.17;4.97;;;31.70;88.90;;;;;;1901541;74;21046;-74
2021/10/29 06:00:34;;;;;;;6.42;5.75;;;31.60;89.50;;;;;;1903193;74;21100;-74
2021/10/29 06:03:09;;;;;;;7.33;5.83;;;31.60;88.90;;;;;;1905124;74;21139;-72
2021/10/29 06:05:38;;;;;;;6.75;5.60;;;31.60;89.50;;;;;;1910888;74;21206;-73
2021/10/29 06:08:09;;;;;;;5.87;4.92;;;31.60;89.50;;;;;;1904121;74;21082;-75
2021/10/29 06:10:40;;;;;;;7.22;5.35;;;31.70;89.00;;;;;;1906857;74;21130;-74
2021/10/29 06:13:11;;;;;;;7.03;4.83;;;31.80;88.20;;;;;;1908335;74;21115;-76
2021/10/29 06:15:45;;;;;;;6.65;5.33;;;31.90;88.80;;;;;;1910007;74;21587;-77
2021/10/29 06:18:26;;;;;;;8.45;4.85;;;31.90;89.80;;;;;;1910639;75;21622;-76
2021/10/29 06:20:47;;;;;;;8.85;5.15;;;31.90;87.60;;;;;;1889842;74;21701;-76
2021/10/29 06:23:21;;;;;;;5.72;5.12;;;32.00;87.70;;;;;;1908228;74;21163;-77
2021/10/29 06:25:55;;;;;;;7.12;5.72;;;32.00;86.00;;;;;;1914810;73;21117;-73
2021/10/29 06:28:31;;;;;;;7.03;4.87;;;31.90;85.90;;;;;;1897554;74;21816;-74
2021/10/29 06:30:58;;;;;;;7.40;5.15;;;31.90;86.30;;;;;;1904055;74;21171;-74
2021/10/29 06:33:29;;;;;;;10.15;5.12;;;31.80;88.30;;;;;;1904011;74;21236;-74
2021/10/29 06:36:00;;;;;;;6.85;5.12;;;31.80;86.70;;;;;;1905842;74;21132;-75
2021/10/29 06:38:31;;;;;;;7.50;5.03;;;31.80;87.70;;;;;;1908094;74;21122;-74
2021/10/29 06:41:02;;;;;;;6.28;4.70;;;31.80;88.20;;;;;;1885472;75;21804;-73
2021/10/29 06:44:39;;;;;;;5.58;4.90;;;31.90;86.70;;;;;;1933740;73;21119;-73
2021/10/29 06:46:18;;;;;;;5.42;4.80;;;31.90;87.80;;;;;;1903753;74;21163;-73
2021/10/29 07:01:26;;;;;;;5.85;4.28;;;32.20;85.40;;;;;;1900805;74;21053;-72
2021/10/29 07:41:53;;;;;;;4.83;3.90;;;31.90;86.70;;;;;;1911105;73;21152;-73
2021/10/29 07:44:27;;;;;;;5.75;3.95;;;31.90;86.70;;;;;;1898204;74;21147;-73
2021/10/29 07:46:56;;;;;;;4.90;3.85;;;31.90;85.50;;;;;;1897373;74;21187;-73
2021/10/29 07:49:28;;;;;;;4.72;3.67;;;31.90;85.90;;;;;;1933911;74;21127;-73
2021/10/29 07:52:00;;;;;;;4.28;3.52;;;31.70;86.50;;;;;;1933338;74;21621;-73
2021/10/29 07:54:31;;;;;;;4.75;3.83;;;31.70;86.50;;;;;;1922624;74;21113;-73
2021/10/29 07:57:02;;;;;;;5.45;3.90;;;31.60;86.70;;;;;;1933617;74;21146;-73
2021/10/29 07:59:32;;;;;;;5.22;3.65;;;31.50;87.30;;;;;;1933631;74;21134;-73
2021/10/29 08:02:03;;;;;;;7.10;3.98;;;31.40;87.80;;;;;;1935512;73;21530;-72
2021/10/29 08:04:34;;;;;;;6.42;4.00;;;31.30;89.00;;;;;;1941534;73;21523;-72
2021/10/29 08:07:05;;;;;;;5.55;3.65;;;31.20;88.60;;;;;;1943143;73;21563;-74
2021/10/29 08:09:37;;;;;;;4.62;3.72;;;31.20;89.20;;;;;;1928451;74;21611;-73
2021/10/29 08:12:09;;;;;;;4.83;3.62;;;31.20;89.70;;;;;;1921044;74;21160;-74
2021/10/29 08:14:40;;;;;;;5.83;4.45;;;31.30;89.90;;;;;;1924880;74;21483;-73
2021/10/29 08:17:12;;;;;;;4.92;3.70;;;31.20;89.30;;;;;;1923350;74;21271;-73
2021/10/29 08:19:44;;;;;;;5.58;4.08;;;31.20;89.30;;;;;;1921551;74;21134;-74
2021/10/29 08:22:15;;;;;;;5.15;4.35;;;31.20;88.80;;;;;;1918799;74;21611;-73
2021/10/29 08:24:46;;;;;;;4.72;3.87;;;31.30;88.70;;;;;;1923761;73;21166;-73
2021/10/29 08:27:17;;;;;;;4.85;3.70;;;31.30;88.30;;;;;;1889904;75;21617;-74
2021/10/29 08:29:47;;;;;;;6.28;3.90;;;31.30;88.40;;;;;;1891971;75;21685;-73
2021/10/29 08:32:18;;;;;;;5.85;4.03;;;31.30;88.60;;;;;;1885417;75;21578;-72
2021/10/29 08:34:49;;;;;;;5.97;3.87;;;31.30;89.20;;;;;;1889093;75;21146;-73
2021/10/29 08:37:21;;;;;;;5.53;3.80;;;31.30;89.20;;;;;;1887069;75;21088;-74
2021/10/29 08:39:52;;;;;;;5.20;3.40;;;31.30;88.10;;;;;;1898178;74;22114;-73
2021/10/29 08:42:23;;;;;;;3.75;3.33;;;31.20;88.90;;;;;;1874602;76;21158;-72
2021/10/29 08:44:54;;;;;;;5.65;3.67;;;31.30;89.30;;;;;;1865969;75;21138;-72
2021/10/29 08:47:27;;;;;;;7.25;4.25;;;31.20;90.00;;;;;;1872475;75;21174;-73
2021/10/29 08:49:58;;;;;;;4.75;3.30;;;31.10;89.10;;;;;;1865184;76;21167;-73
2021/10/29 08:52:29;;;;;;;4.83;3.60;;;31.10;88.60;;;;;;1893689;73;21093;-73
2021/10/29 08:55:01;;;;;;;8.28;4.45;;;31.00;89.00;;;;;;1907114;73;21532;-74
2021/10/29 08:57:32;;;;;;;5.35;4.20;;;30.90;89.00;;;;;;1913372;74;21197;-72
2021/10/29 09:00:08;;;;;;;6.00;4.00;;;30.90;90.00;;;;;;1915426;73;21221;-74
2021/10/29 09:02:40;;;;;;;4.85;3.80;;;30.90;89.40;;;;;;1864194;75;21159;-74
2021/10/29 09:05:17;;;;;;;5.25;4.00;;;30.80;89.40;;;;;;1897685;74;21084;-74
2021/10/29 09:07:59;;;;;;;3.98;3.40;;;30.80;89.90;;;;;;1900472;74;21115;-74
2021/10/29 09:31:23;;;;;;;5.12;3.95;;;30.70;90.50;;;;;;1919050;74;21161;-73
2021/10/29 09:33:14;;;;;;;5.33;3.45;;;30.70;90.70;;;;;;1904489;74;21088;-72
2021/10/29 09:35:48;;;;;;;7.75;4.50;;;30.70;90.60;;;;;;1883107;75;21213;-73
2021/10/29 09:38:19;;;;;;;5.72;3.83;;;30.70;90.90;;;;;;1919321;73;21068;-73
2021/10/29 09:40:52;;;;;;;8.60;4.62;;;30.60;90.90;;;;;;1917291;73;21232;-74
2021/10/29 09:43:25;;;;;;;6.22;4.05;;;30.60;91.00;;;;;;1915606;73;21213;-74
2021/10/29 09:46:02;;;;;;;7.95;4.80;;;30.60;91.00;;;;;;1913729;74;21148;-74
2021/10/29 09:51:12;;;;;;;6.60;4.78;;;30.50;91.40;;;;;;1860998;75;21150;-75
2021/10/29 09:53:46;;;;;;;6.35;4.28;;;30.40;91.50;;;;;;1827549;77;21143;-75
2021/10/29 09:56:32;;;;;;;6.87;4.83;;;30.40;91.60;;;;;;1881831;75;21633;-74
2021/10/29 09:58:46;;;;;;;6.53;4.83;;;30.30;91.50;;;;;;1865174;76;21143;-76
2021/10/29 10:01:19;;;;;;;8.18;5.75;;;30.20;92.10;;;;;;1894052;74;21103;-74
2021/10/29 10:03:51;;;;;;;9.30;5.37;;;30.10;92.90;;;;;;1900245;74;21141;-74
2021/10/29 10:06:25;;;;;;;8.20;5.72;;;30.00;93.30;;;;;;1898549;75;21434;-73
2021/10/29 10:08:58;;;;;;;9.75;6.22;;;29.70;93.80;;;;;;1858753;75;21123;-73
2021/10/29 10:11:38;;;;;;;8.78;6.20;;;29.60;94.40;;;;;;1893672;74;21181;-73
2021/10/29 10:14:09;;;;;;;7.05;5.60;;;29.40;94.60;;;;;;1888052;74;21096;-72
2021/10/29 10:16:40;;;;;;;8.80;6.22;;;29.30;94.60;;;;;;1892431;74;21722;-73
2021/10/29 10:19:12;;;;;;;7.50;5.65;;;29.20;94.70;;;;;;1899021;74;21170;-73
2021/10/29 10:21:44;;;;;;;8.75;6.00;;;29.10;95.10;;;;;;1903264;74;21189;-72
2021/10/29 10:24:19;;;;;;;10.13;5.90;;;29.00;95.30;;;;;;1861984;75;21072;-72
2021/10/29 10:27:15;;;;;;;8.68;5.58;;;29.00;95.70;;;;;;1896318;74;21193;-72
2021/10/29 10:44:58;;;;;;;15.30;7.17;;;28.50;97.00;;;;;;1902762;74;21746;-73
2021/10/29 10:47:23;;;;;;;11.80;7.12;;;28.40;97.10;;;;;;1898140;74;21066;-73
2021/10/29 10:49:57;;;;;;;9.35;6.25;;;28.50;97.30;;;;;;1898617;74;21084;-74
2021/10/29 10:52:32;;;;;;;10.85;6.95;;;28.40;97.30;;;;;;1839488;76;21650;-74
2021/10/29 10:55:11;;;;;;;13.72;7.78;;;28.40;97.40;;;;;;1892734;74;21729;-73
2021/10/29 11:10:31;;;;;;;9.58;6.80;;;28.20;97.70;;;;;;1902483;74;21512;-81
2021/10/29 11:13:02;;;;;;;9.53;6.17;;;28.20;97.90;;;;;;1900241;74;21556;-82
2021/10/29 11:15:33;;;;;;;9.55;6.37;;;28.20;98.10;;;;;;1886749;74;21139;-81
2021/10/29 11:18:08;;;;;;;9.98;6.37;;;28.10;98.10;;;;;;1891959;74;21139;-82
2021/10/29 11:20:47;;;;;;;8.90;6.22;;;28.10;98.10;;;;;;1911337;74;21131;-82
2021/10/29 11:23:19;;;;;;;9.95;6.00;;;28.00;98.00;;;;;;1899299;75;21131;-82
2021/10/29 11:25:51;;;;;;;11.00;6.20;;;28.00;98.30;;;;;;1901609;75;21155;-82
2021/10/29 11:28:26;;;;;;;8.20;6.12;;;27.90;98.40;;;;;;1844141;78;21174;-81
2021/10/29 11:30:58;;;;;;;8.90;6.55;;;27.90;98.50;;;;;;1843111;77;21167;-82
2021/10/29 11:33:30;;;;;;;10.23;6.87;;;27.90;98.60;;;;;;1836497;76;21236;-81
2021/10/29 11:36:03;;;;;;;9.83;6.85;;;27.90;98.60;;;;;;1833785;78;21204;-82
2021/10/29 11:38:37;;;;;;;11.68;7.60;;;27.90;98.80;;;;;;1831975;77;21221;-82
2021/10/29 11:41:10;;;;;;;9.80;7.22;;;27.90;98.90;;;;;;1840480;77;21204;-82
2021/10/29 11:43:41;;;;;;;7.80;6.42;;;27.90;99.00;;;;;;1842796;76;21245;-82
2021/10/29 11:46:14;;;;;;;9.88;6.50;;;27.80;99.00;;;;;;1803694;78;21167;-82
2021/10/29 11:48:48;;;;;;;9.38;6.65;;;27.80;99.00;;;;;;1778792;80;21144;-82
2021/10/29 11:51:21;;;;;;;7.90;6.55;;;27.80;99.00;;;;;;1837793;76;21299;-83
2021/10/29 11:53:59;;;;;;;11.30;6.47;;;27.80;99.00;;;;;;1828884;78;21156;-81
2021/10/29 11:56:39;;;;;;;9.60;7.15;;;27.70;99.10;;;;;;1831176;78;21213;-81
2021/10/29 11:59:13;;;;;;;11.97;6.50;;;27.70;99.10;;;;;;1854713;76;21135;-83
2021/10/29 12:09:18;;;;;;;9.70;5.97;;;27.70;99.10;;;;;;1887365;75;21121;-81
2021/10/29 12:11:52;;;;;;;8.03;6.45;;;27.70;99.00;;;;;;1879358;75;21606;-81
2021/10/29 12:14:25;;;;;;;8.70;6.80;;;27.70;99.10;;;;;;1875431;75;21162;-81
2021/10/29 12:17:00;;;;;;;11.00;6.05;;;27.70;99.30;;;;;;1887243;75;21135;-81
2021/10/29 12:19:29;;;;;;;8.85;6.70;;;27.60;99.20;;;;;;1895264;75;21232;-80
2021/10/29 12:22:10;;;;;;;10.70;6.53;;;27.60;99.30;;;;;;1873405;75;21672;-81
2021/10/29 12:24:39;;;;;;;8.78;6.35;;;27.60;99.10;;;;;;1852021;77;21093;-81
2021/10/29 12:27:09;;;;;;;9.45;6.40;;;27.60;99.20;;;;;;1842806;77;21176;-82
2021/10/29 12:29:40;;;;;;;13.20;5.97;;;27.60;99.20;;;;;;1853152;76;21093;-81
2021/10/29 12:37:43;;;;;;;9.43;6.97;;;27.60;99.30;;;;;;1889418;75;21867;-80
2021/10/29 13:02:56;;;;;;;13.40;7.85;;;27.50;99.80;;;;;;1907053;74;21620;-79
2021/10/29 13:05:27;;;;;;;12.35;7.40;;;27.50;99.70;;;;;;1925113;73;21688;-80
2021/10/29 13:07:58;;;;;;;11.63;7.00;;;27.50;99.60;;;;;;1906011;74;21134;-81
2021/10/29 13:10:30;;;;;;;10.48;7.15;;;27.50;99.70;;;;;;1910031;74;21634;-81
2021/10/29 13:15:31;;;;;;;12.40;7.78;;;27.50;99.80;;;;;;1911417;75;21562;-80
2021/10/29 13:18:07;;;;;;;10.32;7.85;;;27.40;99.90;;;;;;1910939;75;21080;-81
2021/10/29 13:28:48;;;;;;;14.98;9.95;;;27.40;99.90;;;;;;1876584;76;21061;-81
2021/10/29 13:51:15;;;;;;;15.35;9.48;;;27.20;99.90;;;;;;1892238;74;21116;-80
2021/10/29 13:56:18;;;;;;;14.98;9.53;;;27.20;99.90;;;;;;1948861;73;21552;-80
2021/10/29 14:01:35;;;;;;;13.62;8.63;;;27.20;99.90;;;;;;1926835;73;21150;-81
2021/10/29 14:29:16;;;;;;;12.47;8.93;;;27.10;99.90;;;;;;1907552;73;21240;-81
2021/10/29 14:34:26;;;;;;;12.37;8.48;;;27.10;99.90;;;;;;1900395;75;21547;-80
2021/10/29 14:37:36;;;;;;;13.20;8.18;;;27.00;99.90;;;;;;1899437;75;21232;-81
2021/10/29 14:39:30;;;;;;;13.22;8.68;;;27.00;99.90;;;;;;1895331;75;21244;-82
2021/10/29 14:44:28;;;;;;;12.20;8.45;;;27.10;99.90;;;;;;1936122;73;21083;-81
2021/10/29 14:47:11;;;;;;;12.35;7.95;;;27.00;99.90;;;;;;1925362;73;21672;-81
2021/10/29 15:02:33;;;;;;;12.03;7.58;;;27.00;99.90;;;;;;1912550;75;21730;-79
2021/10/29 15:30:10;;;;;;;11.05;7.47;;;26.70;99.90;;;;;;1918991;74;21151;-80
2021/10/29 15:45:25;;;;;;;10.15;7.00;;;26.70;99.90;;;;;;1919468;73;21097;-80
2021/10/29 15:50:29;;;;;;;10.20;7.17;;;26.70;99.90;;;;;;1912520;74;21218;-81
2021/10/29 15:52:55;;;;;;;11.73;7.60;;;26.80;99.90;;;;;;1909023;74;21076;-80
2021/10/29 15:58:09;;;;;;;8.75;7.37;;;26.80;99.90;;;;;;1865196;76;21250;-80
2021/10/29 16:00:37;;;;;;;12.20;8.28;;;26.80;99.90;;;;;;1867904;76;21183;-81
2021/10/29 16:03:16;;;;;;;13.10;8.33;;;26.80;99.90;;;;;;1931493;73;21536;-80
2021/10/29 16:18:17;;;;;;;11.30;8.13;;;26.80;99.90;;;;;;1901057;75;21644;-80
2021/10/29 16:20:49;;;;;;;14.98;7.72;;;26.80;99.90;;;;;;1908854;74;21186;-80
2021/10/29 16:23:26;;;;;;;12.98;8.30;;;26.80;99.90;;;;;;1910221;75;21621;-80
2021/10/29 16:26:00;;;;;;;13.53;9.05;;;26.80;99.90;;;;;;1902665;74;21188;-79
2021/10/29 16:28:30;;;;;;;14.95;9.35;;;26.80;99.90;;;;;;1890621;74;21144;-79
2021/10/29 16:30:56;;;;;;;13.38;8.75;;;26.80;99.90;;;;;;1904777;75;21223;-80
2021/10/29 16:33:34;;;;;;;13.45;8.33;;;26.80;99.90;;;;;;1906506;74;21132;-80
2021/10/29 16:36:01;;;;;;;14.78;8.68;;;26.80;99.90;;;;;;1911933;74;21186;-78
2021/10/29 16:38:33;;;;;;;14.90;8.68;;;26.80;99.90;;;;;;1874975;74;21679;-80
2021/10/29 16:41:04;;;;;;;12.82;8.25;;;26.80;99.90;;;;;;1916833;73;21131;-80
2021/10/29 16:43:36;;;;;;;14.23;8.70;;;26.80;99.90;;;;;;1912500;74;21583;-80
2021/10/29 16:46:07;;;;;;;12.05;8.58;;;26.80;99.90;;;;;;1898396;74;21171;-80
2021/10/29 16:48:38;;;;;;;14.87;9.78;;;26.80;99.90;;;;;;1900382;74;21256;-80
2021/10/29 16:51:12;;;;;;;12.28;8.80;;;26.80;99.90;;;;;;1906017;74;21122;-80
2021/10/29 16:53:43;;;;;;;14.40;9.78;;;26.80;99.90;;;;;;1907442;74;22321;-80
2021/10/29 16:56:14;;;;;;;15.30;10.10;;;26.80;99.90;;;;;;1911995;74;21155;-82
2021/10/29 16:58:47;;;;;;;14.23;9.40;;;26.80;99.90;;;;;;1908491;74;21144;-80
2021/10/29 17:01:18;;;;;;;15.23;8.35;;;26.80;99.90;;;;;;1895208;74;21603;-81
2021/10/29 17:03:49;;;;;;;13.65;9.28;;;26.80;99.90;;;;;;1902613;74;21756;-81
2021/10/29 17:06:20;;;;;;;13.38;8.23;;;26.90;99.90;;;;;;1908792;74;21201;-81
2021/10/29 17:08:51;;;;;;;11.05;7.72;;;26.90;99.90;;;;;;1905198;74;21623;-81
2021/10/29 17:11:22;;;;;;;14.58;7.35;;;26.90;99.90;;;;;;1855550;76;21645;-80
2021/10/29 17:13:54;;;;;;;14.93;7.10;;;26.90;99.90;;;;;;1922213;73;21119;-81
2021/10/29 17:16:25;;;;;;;10.53;6.45;;;26.90;99.90;;;;;;1918365;73;21143;-80
2021/10/29 17:18:56;;;;;;;9.70;6.25;;;26.90;99.90;;;;;;1905910;74;21189;-81
2021/10/29 17:21:26;;;;;;;10.38;5.55;;;26.80;99.90;;;;;;1904100;74;21119;-81
2021/10/29 17:23:59;;;;;;;11.38;6.22;;;26.80;99.90;;;;;;1904922;74;21633;-81
2021/10/29 17:26:32;;;;;;;12.88;6.40;;;26.80;99.90;;;;;;1907394;74;21611;-81
2021/10/29 17:29:06;;;;;;;10.85;6.00;;;26.80;99.90;;;;;;1907628;74;21143;-81
2021/10/29 17:31:37;;;;;;;10.65;6.83;;;26.80;99.90;;;;;;1905687;74;21176;-81
2021/10/29 17:34:10;;;;;;;13.10;6.87;;;26.70;99.90;;;;;;1909681;74;21583;-81
2021/10/29 17:36:41;;;;;;;10.93;6.40;;;26.70;99.90;;;;;;1911980;74;21120;-81
2021/10/29 17:39:12;;;;;;;10.58;7.00;;;26.70;99.90;;;;;;1908694;74;21127;-80
2021/10/29 17:41:42;;;;;;;9.43;6.37;;;26.70;99.90;;;;;;1906812;74;21135;-80
2021/10/29 17:44:14;;;;;;;12.55;6.70;;;26.70;99.90;;;;;;1911581;74;21201;-81
2021/10/29 17:46:45;;;;;;;10.75;7.45;;;26.60;99.90;;;;;;1907537;74;21136;-81